Time;durP1;ratioP1;P1;durP2;ratioP2;P2;SDS_P1;SDS_P2;PMS_P1;PMS_P2;Temp;Humidity;BMP_temperature;BMP_pressure;BME280_temperature;BME280_humidity;BME280_pressure;Samples;Min_cycle;Max_cycle;Signal;HPM_P1;HPM_P2
2023/05/29 00:01:58;;;;;;;11.63;7.75;;;;;;;18.16;100.00;99498.00;5121190;27;20055;-64
2023/05/29 00:04:24;;;;;;;14.32;8.27;;;;;;;18.19;100.00;99494.88;5123196;28;20206;-64
2023/05/29 00:06:50;;;;;;;10.82;7.60;;;;;;;18.22;100.00;99500.84;5122355;28;20035;-64
2023/05/29 00:09:16;;;;;;;11.48;7.50;;;;;;;18.18;100.00;99493.25;5118642;28;20096;-64
2023/05/29 00:11:41;;;;;;;11.35;7.30;;;;;;;18.14;100.00;99494.72;5122875;28;20326;-64
2023/05/29 00:14:06;;;;;;;14.23;7.75;;;;;;;18.18;100.00;99490.56;5120367;28;20587;-64
2023/05/29 00:16:32;;;;;;;13.30;7.47;;;;;;;18.16;100.00;99495.31;5118644;28;20340;-64
2023/05/29 00:18:57;;;;;;;11.15;7.15;;;;;;;18.17;100.00;99496.16;5121738;27;20035;-64
2023/05/29 00:21:23;;;;;;;12.82;6.90;;;;;;;18.16;100.00;99494.50;5124451;27;20051;-64
2023/05/29 00:23:48;;;;;;;13.80;6.32;;;;;;;18.11;100.00;99484.44;5125984;27;20246;-65
2023/05/29 00:26:16;;;;;;;9.20;6.00;;;;;;;18.05;100.00;99482.63;5124926;27;20343;-64
2023/05/29 00:28:42;;;;;;;9.73;5.47;;;;;;;18.04;100.00;99486.34;5123147;27;20031;-64
2023/05/29 00:31:07;;;;;;;9.52;5.53;;;;;;;18.05;100.00;99487.16;5124080;27;20110;-64
2023/05/29 00:33:32;;;;;;;9.65;5.28;;;;;;;18.07;100.00;99495.81;5127280;27;20042;-64
2023/05/29 00:35:58;;;;;;;7.68;4.78;;;;;;;18.10;100.00;99490.81;5125792;27;20041;-64
2023/05/29 00:38:23;;;;;;;8.93;5.15;;;;;;;18.16;100.00;99486.47;5123767;27;20061;-65
2023/05/29 00:40:49;;;;;;;7.82;4.45;;;;;;;18.14;100.00;99496.56;5123647;27;20330;-64
2023/05/29 00:43:14;;;;;;;8.38;4.35;;;;;;;18.18;100.00;99495.09;5122239;27;20107;-64
2023/05/29 00:45:40;;;;;;;8.68;5.43;;;;;;;18.16;100.00;99498.00;5127354;27;20031;-64
2023/05/29 00:48:06;;;;;;;7.38;4.60;;;;;;;18.25;100.00;99500.41;5123052;27;20031;-64
2023/05/29 00:50:33;;;;;;;10.02;4.80;;;;;;;18.25;100.00;99493.19;5122216;27;20034;-65
2023/05/29 00:53:02;;;;;;;12.60;4.47;;;;;;;18.27;100.00;99495.66;5122371;27;20039;-64
2023/05/29 00:55:29;;;;;;;5.00;3.92;;;;;;;18.30;100.00;99498.72;5123266;27;20042;-65
2023/05/29 00:57:55;;;;;;;8.93;4.50;;;;;;;18.31;100.00;99494.19;5127365;27;20094;-65
2023/05/29 01:00:21;;;;;;;5.95;4.18;;;;;;;18.19;100.00;99494.06;5125757;27;20081;-64
2023/05/29 01:02:47;;;;;;;7.22;4.13;;;;;;;18.28;100.00;99489.25;5122214;27;20061;-64
2023/05/29 01:05:14;;;;;;;8.75;4.38;;;;;;;18.27;100.00;99493.78;5124172;27;20023;-65
2023/05/29 01:07:42;;;;;;;9.40;4.03;;;;;;;18.30;100.00;99496.03;5127917;27;20325;-64
2023/05/29 01:10:08;;;;;;;6.63;4.35;;;;;;;18.24;100.00;99490.72;5126465;27;20036;-64
2023/05/29 01:12:57;;;;;;;9.07;4.07;;;;;;;18.24;100.00;99486.19;5122750;27;20050;-64
2023/05/29 01:15:50;;;;;;;8.30;3.80;;;;;;;18.13;100.00;99485.03;5122554;27;20095;-64
2023/05/29 01:18:19;;;;;;;5.97;3.87;;;;;;;18.26;100.00;99481.44;5123778;27;20074;-64
2023/05/29 01:20:54;;;;;;;7.00;4.47;;;;;;;18.36;100.00;99480.94;5125724;27;20096;-64
2023/05/29 01:23:52;;;;;;;9.23;4.97;;;;;;;18.36;100.00;99481.75;5122510;27;20043;-64
2023/05/29 01:26:50;;;;;;;7.03;3.95;;;;;;;18.26;100.00;99478.75;5120443;28;20055;-64
2023/05/29 01:29:22;;;;;;;6.05;3.60;;;;;;;18.08;100.00;99478.69;5123508;28;20038;-65
2023/05/29 01:31:49;;;;;;;7.65;4.15;;;;;;;18.06;100.00;99483.44;5124681;27;20055;-64
2023/05/29 01:34:15;;;;;;;7.95;4.50;;;;;;;17.98;100.00;99479.16;5121048;28;20042;-64
2023/05/29 01:36:41;;;;;;;7.93;4.05;;;;;;;17.99;100.00;99483.50;5124722;28;20240;-64
2023/05/29 01:39:07;;;;;;;9.05;4.30;;;;;;;17.80;100.00;99481.75;5120441;28;20035;-64
2023/05/29 01:41:34;;;;;;;11.57;5.43;;;;;;;17.92;100.00;99479.22;5121612;28;20168;-64
2023/05/29 01:44:03;;;;;;;7.57;4.15;;;;;;;17.96;100.00;99483.09;5124272;28;20055;-64
2023/05/29 01:46:28;;;;;;;7.50;4.53;;;;;;;17.99;100.00;99478.13;5122453;28;20561;-65
2023/05/29 01:48:55;;;;;;;11.02;4.80;;;;;;;18.09;100.00;99478.47;5121403;27;20048;-64
2023/05/29 01:51:21;;;;;;;11.13;4.85;;;;;;;18.11;100.00;99486.28;5122423;28;20102;-65
2023/05/29 01:53:46;;;;;;;9.07;5.70;;;;;;;18.18;100.00;99477.16;5130563;27;20333;-64
2023/05/29 01:56:12;;;;;;;7.78;4.93;;;;;;;18.25;100.00;99485.16;5123966;28;20040;-64
2023/05/29 01:58:39;;;;;;;9.20;4.97;;;;;;;18.30;100.00;99489.88;5124563;28;20047;-65
2023/05/29 02:01:06;;;;;;;8.07;5.15;;;;;;;18.36;100.00;99487.13;5122605;28;20038;-64
2023/05/29 02:03:32;;;;;;;7.95;5.10;;;;;;;18.34;100.00;99483.84;5121182;28;20475;-64
2023/05/29 02:05:58;;;;;;;9.68;4.75;;;;;;;18.32;100.00;99485.09;5123829;28;20049;-65
2023/05/29 02:08:24;;;;;;;8.82;5.00;;;;;;;18.24;100.00;99482.69;5120741;28;20112;-64
2023/05/29 02:10:49;;;;;;;9.23;4.60;;;;;;;18.35;100.00;99488.16;5124614;28;20040;-65
2023/05/29 02:13:15;;;;;;;11.45;5.05;;;;;;;18.19;100.00;99468.09;5121663;28;20252;-65
2023/05/29 02:15:41;;;;;;;8.52;4.45;;;;;;;18.30;100.00;99490.69;5123370;28;20064;-64
2023/05/29 02:18:11;;;;;;;7.75;5.25;;;;;;;18.15;100.00;99461.53;5122324;27;20411;-65
2023/05/29 02:20:37;;;;;;;9.40;4.68;;;;;;;18.26;100.00;99480.63;5120793;28;20041;-64
2023/05/29 02:23:03;;;;;;;14.13;5.78;;;;;;;18.32;100.00;99480.56;5080286;27;1141817;-64
2023/05/29 02:25:28;;;;;;;8.82;4.72;;;;;;;18.36;100.00;99487.13;5122020;27;20031;-65
2023/05/29 02:27:53;;;;;;;12.25;5.45;;;;;;;18.34;100.00;99493.75;5129909;27;20039;-65
2023/05/29 02:30:19;;;;;;;8.02;4.70;;;;;;;18.35;100.00;99484.66;5122508;27;20040;-65
2023/05/29 02:32:45;;;;;;;6.50;4.68;;;;;;;18.39;100.00;99488.56;5125206;27;20043;-64
2023/05/29 02:35:13;;;;;;;8.02;4.68;;;;;;;18.36;100.00;99480.94;5124448;27;20069;-64
2023/05/29 02:37:38;;;;;;;7.20;4.25;;;;;;;18.33;100.00;99495.59;5122143;27;20028;-64
2023/05/29 02:40:06;;;;;;;7.18;4.50;;;;;;;18.31;100.00;99491.50;5121467;27;20039;-64
2023/05/29 02:42:31;;;;;;;9.00;5.10;;;;;;;18.22;100.00;99488.28;5121964;27;20079;-65
2023/05/29 02:44:57;;;;;;;7.57;4.30;;;;;;;18.10;100.00;99492.69;5124759;27;20329;-65
2023/05/29 02:47:22;;;;;;;10.68;4.80;;;;;;;18.04;100.00;99488.19;5121034;27;20194;-64
2023/05/29 02:49:47;;;;;;;8.60;4.15;;;;;;;17.97;100.00;99492.78;5119718;27;20534;-64
2023/05/29 02:52:13;;;;;;;6.25;4.55;;;;;;;17.96;100.00;99485.78;5124601;27;20039;-64
2023/05/29 02:54:38;;;;;;;8.48;4.93;;;;;;;17.96;100.00;99488.44;5124308;27;20043;-64
2023/05/29 02:57:04;;;;;;;8.93;4.78;;;;;;;17.96;100.00;99489.28;5121362;27;20226;-64
2023/05/29 02:59:31;;;;;;;7.50;4.60;;;;;;;17.99;100.00;99491.53;5119369;27;20039;-64
2023/05/29 03:01:57;;;;;;;7.10;4.43;;;;;;;18.06;100.00;99499.50;5126824;27;20035;-64
2023/05/29 03:04:23;;;;;;;7.78;4.97;;;;;;;18.08;100.00;99500.13;5122662;27;20028;-64
2023/05/29 03:06:48;;;;;;;9.93;5.10;;;;;;;18.10;100.00;99504.22;5126413;27;20035;-65
2023/05/29 03:09:15;;;;;;;7.53;4.80;;;;;;;18.10;100.00;99500.72;5122041;27;20024;-64
2023/05/29 03:11:41;;;;;;;7.75;4.70;;;;;;;18.09;100.00;99496.41;5121612;27;20196;-64
2023/05/29 03:14:06;;;;;;;8.23;4.93;;;;;;;18.08;100.00;99500.13;5119121;27;20024;-64
2023/05/29 03:16:32;;;;;;;9.30;4.90;;;;;;;17.99;100.00;99494.19;5119433;27;20055;-64
2023/05/29 03:18:57;;;;;;;9.77;4.82;;;;;;;17.96;100.00;99491.13;5122223;27;20409;-65
2023/05/29 03:21:23;;;;;;;8.88;4.68;;;;;;;17.97;100.00;99498.97;5119475;27;20035;-64
2023/05/29 03:23:48;;;;;;;9.90;6.00;;;;;;;18.02;100.00;99501.81;5123285;27;20119;-64
2023/05/29 03:26:14;;;;;;;8.98;4.72;;;;;;;17.97;100.00;99498.97;5123023;27;20031;-64
2023/05/29 03:28:39;;;;;;;9.50;5.03;;;;;;;18.04;100.00;99510.44;5104184;28;20249;-64
2023/05/29 03:31:05;;;;;;;9.65;5.15;;;;;;;18.07;100.00;99507.34;5121231;27;20035;-65
2023/05/29 03:33:31;;;;;;;11.05;5.55;;;;;;;18.14;100.00;99515.34;5120154;27;20095;-65
2023/05/29 03:35:56;;;;;;;7.72;5.25;;;;;;;18.14;100.00;99515.34;5121888;27;20042;-65
2023/05/29 03:38:22;;;;;;;9.88;5.78;;;;;;;18.18;100.00;99516.53;5120129;27;20031;-65
2023/05/29 03:40:47;;;;;;;8.90;5.55;;;;;;;18.25;100.00;99520.00;5119330;27;20035;-64
2023/05/29 03:43:12;;;;;;;7.85;5.18;;;;;;;18.29;100.00;99523.06;5121656;27;20027;-64
2023/05/29 03:45:38;;;;;;;10.57;5.43;;;;;;;18.29;100.00;99529.25;5120200;27;20226;-65
2023/05/29 03:48:03;;;;;;;8.88;5.10;;;;;;;18.28;100.00;99532.13;5121808;27;20041;-64
2023/05/29 03:50:29;;;;;;;7.82;4.95;;;;;;;18.19;100.00;99532.41;5119605;27;20036;-64
2023/05/29 03:52:54;;;;;;;9.48;5.25;;;;;;;18.16;100.00;99529.34;5122462;27;20036;-64
2023/05/29 03:55:20;;;;;;;7.82;5.25;;;;;;;18.18;100.00;99524.59;5121500;27;20038;-65
2023/05/29 03:57:45;;;;;;;9.48;6.00;;;;;;;18.26;100.00;99524.31;5121255;27;20077;-65
2023/05/29 04:00:11;;;;;;;6.78;5.32;;;;;;;18.26;100.00;99528.84;5124833;28;21400;-65
2023/05/29 04:02:40;;;;;;;9.57;5.20;;;;;;;18.24;100.00;99529.06;5123965;27;20220;-64
2023/05/29 04:05:07;;;;;;;8.13;5.78;;;;;;;18.23;100.00;99538.16;5122133;28;20039;-64
2023/05/29 04:07:33;;;;;;;14.00;6.28;;;;;;;18.20;100.00;99530.53;5119490;28;20063;-65
2023/05/29 04:09:58;;;;;;;7.63;4.88;;;;;;;18.25;100.00;99533.41;5119082;28;20054;-64
2023/05/29 04:12:24;;;;;;;11.80;6.45;;;;;;;18.32;100.00;99539.53;5119477;28;20031;-64
2023/05/29 04:14:49;;;;;;;9.38;5.63;;;;;;;18.43;100.00;99546.06;5122193;28;20042;-65
2023/05/29 04:17:15;;;;;;;9.55;5.55;;;;;;;18.34;100.00;99547.34;5122473;28;20035;-65
2023/05/29 04:19:40;;;;;;;7.55;5.05;;;;;;;18.36;100.00;99551.47;5123029;28;20035;-64
2023/05/29 04:22:06;;;;;;;11.23;5.85;;;;;;;18.43;100.00;99554.91;5119966;28;20051;-64
2023/05/29 04:24:32;;;;;;;9.88;5.80;;;;;;;18.44;100.00;99561.91;5121211;28;20062;-65
2023/05/29 04:27:00;;;;;;;7.30;4.88;;;;;;;18.56;100.00;99566.56;5124442;28;20342;-64
2023/05/29 04:29:26;;;;;;;6.72;4.78;;;;;;;18.62;100.00;99560.38;5121625;28;20055;-65
2023/05/29 04:31:51;;;;;;;11.18;5.05;;;;;;;18.66;100.00;99564.25;5120369;28;20269;-65
2023/05/29 04:34:17;;;;;;;7.53;5.00;;;;;;;18.44;100.00;99559.25;5118457;28;20360;-64
2023/05/29 04:36:43;;;;;;;7.90;4.57;;;;;;;18.46;100.00;99559.84;5120455;28;20041;-65
2023/05/29 04:39:09;;;;;;;9.43;5.30;;;;;;;18.50;100.00;99560.22;5119014;28;20039;-64
2023/05/29 04:41:35;;;;;;;7.63;4.55;;;;;;;18.53;100.00;99562.47;5123320;28;20273;-64
2023/05/29 04:44:01;;;;;;;7.57;4.95;;;;;;;18.56;100.00;99562.03;5121793;28;20042;-64
2023/05/29 04:46:27;;;;;;;7.43;4.07;;;;;;;18.52;100.00;99564.34;5120892;28;20107;-64
2023/05/29 04:48:56;;;;;;;9.18;4.80;;;;;;;18.58;100.00;99569.88;5118440;28;20059;-64
2023/05/29 04:51:22;;;;;;;6.82;3.85;;;;;;;18.51;100.00;99573.41;5122042;28;20035;-64
2023/05/29 04:53:48;;;;;;;7.55;4.40;;;;;;;18.52;100.00;99571.56;5119206;28;20047;-64
2023/05/29 04:56:14;;;;;;;8.85;4.22;;;;;;;18.38;100.00;99570.84;5123898;28;20036;-65
2023/05/29 04:58:41;;;;;;;7.80;4.45;;;;;;;18.39;100.00;99572.47;5120295;28;20046;-64
2023/05/29 05:01:07;;;;;;;9.30;4.60;;;;;;;18.13;100.00;99580.69;5118495;28;20325;-65
2023/05/29 05:03:33;;;;;;;8.23;4.90;;;;;;;18.18;100.00;99579.00;5123759;28;20043;-64
2023/05/29 05:06:02;;;;;;;7.70;4.90;;;;;;;18.07;100.00;99584.22;5128107;27;20217;-65
2023/05/29 05:08:29;;;;;;;6.70;4.70;;;;;;;18.00;100.00;99581.56;5125226;27;20094;-64
2023/05/29 05:10:55;;;;;;;7.85;4.85;;;;;;;18.06;100.00;99580.72;5127277;27;20055;-64
2023/05/29 05:13:20;;;;;;;8.23;5.57;;;;;;;18.16;100.00;99575.72;5126698;27;20069;-65
2023/05/29 05:15:46;;;;;;;8.18;5.05;;;;;;;17.93;100.00;99578.09;5127332;27;20044;-64
2023/05/29 05:18:11;;;;;;;8.45;4.80;;;;;;;17.91;100.00;99579.34;5127334;27;20377;-64
2023/05/29 05:20:37;;;;;;;7.05;4.55;;;;;;;17.93;100.00;99586.16;5122883;27;20034;-64
2023/05/29 05:23:02;;;;;;;13.48;8.13;;;;;;;18.00;100.00;99589.59;5121855;27;20221;-64
2023/05/29 05:25:28;;;;;;;8.30;5.68;;;;;;;18.03;100.00;99589.19;5125239;27;20044;-64
2023/05/29 05:27:54;;;;;;;7.70;4.55;;;;;;;18.06;100.00;99601.34;5127388;27;20324;-64
2023/05/29 05:30:20;;;;;;;6.43;4.43;;;;;;;18.05;100.00;99605.03;5132667;27;20118;-64
2023/05/29 05:32:45;;;;;;;11.15;5.13;;;;;;;18.06;100.00;99604.84;5134855;27;20045;-65
2023/05/29 05:35:11;;;;;;;9.50;5.43;;;;;;;18.13;100.00;99612.84;5133707;27;20039;-64
2023/05/29 05:37:37;;;;;;;9.70;5.57;;;;;;;18.17;100.00;99608.69;5134895;27;20039;-65
2023/05/29 05:40:06;;;;;;;6.72;5.18;;;;;;;18.36;100.00;99604.25;5133443;27;20252;-65
2023/05/29 05:42:31;;;;;;;8.52;5.50;;;;;;;18.42;100.00;99606.88;5132733;27;20031;-64
2023/05/29 05:44:57;;;;;;;7.32;4.72;;;;;;;18.44;100.00;99606.66;5133647;27;20102;-64
2023/05/29 05:47:22;;;;;;;8.60;5.22;;;;;;;18.41;100.00;99604.44;5133853;27;20031;-64
2023/05/29 05:49:49;;;;;;;8.38;4.90;;;;;;;18.61;100.00;99606.97;5133121;27;20205;-64
2023/05/29 05:52:16;;;;;;;9.00;4.70;;;;;;;18.65;100.00;99600.16;5134249;27;20039;-65
2023/05/29 05:54:41;;;;;;;9.07;5.03;;;;;;;18.65;100.00;99600.97;5134873;27;20050;-65
2023/05/29 05:57:07;;;;;;;9.48;4.72;;;;;;;18.70;100.00;99595.78;5131839;27;20035;-65
2023/05/29 05:59:32;;;;;;;9.35;5.43;;;;;;;18.83;100.00;99597.56;5133590;27;20038;-65
2023/05/29 06:01:58;;;;;;;9.00;6.35;;;;;;;18.91;100.00;99597.31;5133125;27;20023;-65
2023/05/29 06:04:23;;;;;;;8.70;4.78;;;;;;;18.95;100.00;99595.00;5133243;27;20595;-65
2023/05/29 06:06:49;;;;;;;6.40;4.72;;;;;;;18.95;100.00;99600.38;5132931;27;20027;-65
2023/05/29 06:09:14;;;;;;;8.70;4.22;;;;;;;18.93;100.00;99599.75;5134439;27;20031;-65
2023/05/29 06:11:40;;;;;;;9.43;4.70;;;;;;;18.99;100.00;99601.56;5132150;27;20043;-65
2023/05/29 06:14:06;;;;;;;6.57;4.20;;;;;;;18.96;100.00;99602.00;5132692;27;20035;-65
2023/05/29 06:16:31;;;;;;;8.55;4.43;;;;;;;19.02;100.00;99606.50;5130468;27;20035;-65
2023/05/29 06:18:57;;;;;;;6.72;4.60;;;;;;;18.96;100.00;99608.19;5133087;27;20039;-65
2023/05/29 06:21:23;;;;;;;5.32;4.07;;;;;;;18.93;100.00;99607.81;5133229;27;20027;-64
2023/05/29 06:23:48;;;;;;;6.78;5.22;;;;;;;18.86;100.00;99609.72;5133412;27;20050;-65
2023/05/29 06:26:15;;;;;;;7.72;5.20;;;;;;;18.78;100.00;99616.19;5138739;27;20026;-65
2023/05/29 06:28:41;;;;;;;7.55;5.25;;;;;;;18.95;100.00;99622.66;5137639;27;20046;-65
2023/05/29 06:31:06;;;;;;;5.00;4.28;;;;;;;18.93;100.00;99615.84;5134351;27;20035;-65
2023/05/29 06:33:32;;;;;;;9.18;4.50;;;;;;;18.91;100.00;99621.44;5131476;27;20027;-65
2023/05/29 06:35:57;;;;;;;10.27;5.00;;;;;;;19.02;100.00;99623.41;5132643;27;20031;-65
2023/05/29 06:38:23;;;;;;;6.88;5.07;;;;;;;19.18;100.00;99619.34;5134571;27;20339;-65
2023/05/29 06:40:48;;;;;;;5.63;4.47;;;;;;;19.26;100.00;99613.69;5132986;27;20023;-65
2023/05/29 06:43:14;;;;;;;8.23;4.50;;;;;;;19.23;100.00;99614.13;5133819;27;20214;-65
2023/05/29 06:45:40;;;;;;;8.02;4.88;;;;;;;19.39;100.00;99613.56;5132382;27;20224;-65
2023/05/29 06:48:06;;;;;;;6.57;4.40;;;;;;;19.55;100.00;99616.75;5132929;27;20035;-64
2023/05/29 06:50:32;;;;;;;5.65;4.47;;;;;;;19.53;100.00;99616.13;5133036;27;20069;-65
2023/05/29 06:52:57;;;;;;;6.18;4.97;;;;;;;19.62;100.00;99612.13;5131834;27;20045;-65
2023/05/29 06:55:22;;;;;;;6.15;4.50;;;;;;;19.64;100.00;99615.41;5133211;27;20041;-65
2023/05/29 06:57:48;;;;;;;8.00;4.78;;;;;;;19.69;100.00;99615.53;5132522;27;20034;-65
2023/05/29 07:00:14;;;;;;;6.25;4.45;;;;;;;19.79;100.00;99617.72;5134194;27;20061;-64
2023/05/29 07:02:41;;;;;;;12.00;4.30;;;;;;;19.79;100.00;99609.69;5135312;27;20087;-65
2023/05/29 07:05:07;;;;;;;6.78;4.97;;;;;;;19.77;100.00;99612.59;5138326;27;20046;-65
2023/05/29 07:07:32;;;;;;;9.30;4.55;;;;;;;19.94;100.00;99610.94;5138745;27;20030;-65
2023/05/29 07:09:58;;;;;;;7.40;4.72;;;;;;;20.05;100.00;99622.78;5137570;27;20046;-65
2023/05/29 07:12:23;;;;;;;7.22;4.50;;;;;;;20.14;100.00;99615.22;5139162;27;20049;-65
2023/05/29 07:14:49;;;;;;;9.18;4.35;;;;;;;20.11;100.00;99619.19;5138828;27;20031;-65
2023/05/29 07:17:15;;;;;;;6.38;4.00;;;;;;;20.30;100.00;99619.97;5137217;27;20098;-65
2023/05/29 07:19:41;;;;;;;6.78;4.18;;;;;;;20.36;100.00;99613.69;5137870;27;20039;-65
2023/05/29 07:22:06;;;;;;;8.15;4.28;;;;;;;20.32;100.00;99616.00;5138652;27;20072;-65
2023/05/29 07:24:32;;;;;;;5.70;4.10;;;;;;;20.37;100.00;99618.81;5137318;27;20055;-65
2023/05/29 07:26:57;;;;;;;7.15;3.90;;;;;;;20.29;100.00;99619.16;5137924;27;20105;-65
2023/05/29 07:29:25;;;;;;;9.05;4.20;;;;;;;20.30;100.00;99618.09;5138230;27;20039;-65
2023/05/29 07:31:51;;;;;;;7.25;3.97;;;;;;;20.31;100.00;99617.06;5135651;27;20236;-65
2023/05/29 07:34:17;;;;;;;5.00;3.72;;;;;;;20.23;100.00;99613.84;5138292;27;20643;-65
2023/05/29 07:37:01;;;;;;;4.57;3.63;;;;;;;20.30;100.00;99615.41;5136577;27;20034;-65
2023/05/29 07:39:26;;;;;;;;;;;;;;;20.31;100.00;99622.44;5136661;27;20058;-65
2023/05/29 07:41:52;;;;;;;6.03;4.18;;;;;;;20.33;100.00;99620.34;5138270;27;19940;-65
2023/05/29 07:44:18;;;;;;;6.93;3.95;;;;;;;20.34;100.00;99629.22;5138150;27;20043;-65
2023/05/29 07:46:43;;;;;;;5.53;3.90;;;;;;;20.40;100.00;99621.09;5138337;27;20096;-65
2023/05/29 07:49:09;;;;;;;4.88;4.00;;;;;;;20.50;100.00;99627.78;5138179;27;20413;-65
2023/05/29 07:51:34;;;;;;;5.15;3.78;;;;;;;20.55;100.00;99619.84;5137871;27;20046;-65
2023/05/29 07:54:00;;;;;;;6.22;3.72;;;;;;;20.65;100.00;99623.63;5137289;27;20049;-65
2023/05/29 07:56:25;;;;;;;8.45;4.32;;;;;;;20.68;100.00;99611.56;5138401;27;20288;-65
2023/05/29 07:58:53;;;;;;;5.55;3.83;;;;;;;20.76;100.00;99621.19;5138583;27;20083;-65
2023/05/29 08:01:19;;;;;;;5.55;4.13;;;;;;;20.74;100.00;99629.47;5137666;27;20098;-65
2023/05/29 08:03:44;;;;;;;6.22;4.03;;;;;;;20.73;100.00;99630.53;5137696;27;20441;-65
2023/05/29 08:06:10;;;;;;;9.25;4.13;;;;;;;20.87;100.00;99628.47;5137880;27;20205;-65
2023/05/29 08:08:35;;;;;;;5.95;4.50;;;;;;;20.97;100.00;99629.53;5138029;27;20321;-65
2023/05/29 08:11:01;;;;;;;6.68;4.00;;;;;;;21.05;100.00;99623.00;5137349;27;20037;-65
2023/05/29 08:13:27;;;;;;;6.68;4.07;;;;;;;21.12;100.00;99626.41;5138037;27;20043;-65
2023/05/29 08:15:53;;;;;;;5.05;4.22;;;;;;;21.18;100.00;99625.47;5138454;27;20217;-65
2023/05/29 08:18:18;;;;;;;6.93;4.32;;;;;;;21.04;100.00;99622.19;5138045;27;20039;-65
2023/05/29 08:20:44;;;;;;;5.63;4.13;;;;;;;21.14;100.00;99621.59;5137628;27;20043;-65
2023/05/29 08:23:10;;;;;;;5.60;4.10;;;;;;;21.29;100.00;99623.84;5137561;27;20031;-65
2023/05/29 08:25:35;;;;;;;5.15;4.05;;;;;;;21.39;100.00;99620.56;5138269;27;20093;-65
2023/05/29 08:28:01;;;;;;;6.03;4.57;;;;;;;21.52;100.00;99621.16;5137702;27;20050;-65
2023/05/29 08:30:26;;;;;;;7.35;4.40;;;;;;;21.59;100.00;99616.44;5137868;27;20039;-65
2023/05/29 08:32:52;;;;;;;6.75;4.25;;;;;;;21.70;99.70;99613.97;5131952;27;20317;-65
2023/05/29 08:35:17;;;;;;;6.68;4.53;;;;;;;21.83;98.27;99616.41;5133245;27;20337;-65
2023/05/29 08:37:43;;;;;;;7.00;4.60;;;;;;;21.85;98.36;99611.63;5132898;27;20031;-65
2023/05/29 08:40:09;;;;;;;7.10;4.43;;;;;;;21.87;98.86;99612.19;5133119;27;20108;-65
2023/05/29 08:43:02;;;;;;;5.57;3.90;;;;;;;21.85;97.90;99606.22;5135991;27;20023;-65
2023/05/29 08:45:28;;;;;;;6.47;4.22;;;;;;;21.82;97.87;99612.06;5137581;27;20038;-65
2023/05/29 08:47:54;;;;;;;5.60;3.83;;;;;;;21.82;97.27;99603.97;5136102;27;20035;-65
2023/05/29 08:50:21;;;;;;;6.85;4.30;;;;;;;21.84;96.29;99608.06;5136241;27;20038;-64
2023/05/29 08:52:47;;;;;;;6.72;4.22;;;;;;;21.91;97.28;99603.41;5137065;27;20102;-65
2023/05/29 08:55:13;;;;;;;8.75;4.30;;;;;;;22.01;96.76;99600.09;5135849;27;20035;-65
2023/05/29 08:57:39;;;;;;;4.82;4.00;;;;;;;22.09;93.53;99598.91;5136512;27;20027;-65
2023/05/29 09:00:12;;;;;;;5.13;4.00;;;;;;;22.14;92.66;99580.94;5135248;27;20237;-65
2023/05/29 09:02:41;;;;;;;6.72;4.00;;;;;;;22.38;92.83;99597.84;5134778;27;20054;-65
2023/05/29 09:05:08;;;;;;;5.72;3.63;;;;;;;22.33;90.61;99599.63;5136478;27;20047;-65
2023/05/29 09:07:34;;;;;;;4.97;3.47;;;;;;;22.43;88.67;99594.41;5136148;27;20031;-64
2023/05/29 09:10:00;;;;;;;4.97;3.58;;;;;;;22.54;89.43;99596.22;5134278;27;20057;-65
2023/05/29 09:12:26;;;;;;;4.70;3.13;;;;;;;22.60;87.70;99601.47;5134931;27;20287;-65
2023/05/29 09:14:51;;;;;;;4.97;3.47;;;;;;;22.59;87.48;99607.94;5135126;27;20030;-65
2023/05/29 09:17:17;;;;;;;4.95;3.17;;;;;;;22.58;86.27;99600.91;5135435;27;20023;-65
2023/05/29 09:19:42;;;;;;;4.82;3.20;;;;;;;22.47;86.31;99600.97;5135705;27;20041;-65
2023/05/29 09:22:16;;;;;;;7.50;3.47;;;;;;;22.46;90.46;99599.31;5135045;27;20038;-65
2023/05/29 09:24:45;;;;;;;7.10;3.08;;;;;;;22.47;86.80;99606.34;5135318;27;20341;-65
2023/05/29 09:27:13;;;;;;;5.50;3.75;;;;;;;22.38;85.35;99587.06;5136618;27;20059;-65
2023/05/29 09:29:45;;;;;;;6.10;3.78;;;;;;;22.43;86.17;99595.22;5135151;27;20035;-65
2023/05/29 09:32:13;;;;;;;5.13;3.63;;;;;;;22.43;85.73;99606.03;5135497;27;20035;-65
2023/05/29 09:34:39;;;;;;;6.05;3.45;;;;;;;22.50;85.90;99595.09;5137068;27;20043;-65
2023/05/29 09:37:10;;;;;;;5.75;3.30;;;;;;;22.53;85.97;99600.00;5133893;27;20123;-65
2023/05/29 09:39:42;;;;;;;3.90;3.03;;;;;;;22.51;82.86;99594.00;5135992;27;20035;-65
2023/05/29 09:42:07;;;;;;;5.72;3.58;;;;;;;22.36;83.89;99589.16;5135455;27;20313;-65
2023/05/29 09:44:33;;;;;;;5.95;3.55;;;;;;;22.24;83.94;99586.53;5133620;27;20715;-65
2023/05/29 09:46:59;;;;;;;8.35;4.10;;;;;;;22.35;86.58;99582.13;5134883;27;20042;-65
2023/05/29 09:49:26;;;;;;;5.65;3.50;;;;;;;22.32;86.19;99588.03;5136111;27;20032;-65
2023/05/29 09:51:53;;;;;;;6.00;3.38;;;;;;;22.45;83.98;99574.22;5134623;27;20031;-65
2023/05/29 09:54:19;;;;;;;4.78;3.35;;;;;;;22.53;84.98;99557.63;5135814;27;20061;-65
2023/05/29 09:56:46;;;;;;;3.95;2.92;;;;;;;22.71;81.78;99577.34;5133688;27;20110;-66
2023/05/29 09:59:13;;;;;;;5.60;4.07;;;;;;;22.82;82.00;99571.91;5134838;27;20035;-65
2023/05/29 10:01:43;;;;;;;4.80;3.33;;;;;;;22.91;82.26;99573.16;5134265;27;20088;-65
2023/05/29 10:04:10;;;;;;;4.22;3.22;;;;;;;22.99;82.15;99574.63;5135263;27;20058;-65
2023/05/29 10:06:38;;;;;;;6.47;3.25;;;;;;;23.11;83.34;99561.03;5132133;27;20043;-65
2023/05/29 10:09:07;;;;;;;4.57;3.63;;;;;;;23.21;83.77;99558.47;5134484;27;20039;-65
2023/05/29 10:11:34;;;;;;;6.15;3.35;;;;;;;23.26;82.29;99555.84;5134197;27;20035;-65
2023/05/29 10:14:02;;;;;;;6.28;3.90;;;;;;;23.33;82.33;99556.47;5133835;27;20065;-65
2023/05/29 10:16:28;;;;;;;6.22;3.60;;;;;;;23.39;82.12;99551.94;5135009;27;20027;-65
2023/05/29 10:18:56;;;;;;;4.80;3.53;;;;;;;23.47;81.88;99549.63;5134482;27;20063;-64
2023/05/29 10:21:22;;;;;;;5.35;3.80;;;;;;;23.58;81.87;99552.50;5135122;27;20296;-65
2023/05/29 10:23:50;;;;;;;5.20;3.45;;;;;;;23.54;80.40;99552.13;5131366;27;20049;-65
2023/05/29 10:26:25;;;;;;;4.97;3.80;;;;;;;23.43;78.95;99537.69;5130692;27;20057;-65
2023/05/29 10:29:18;;;;;;;6.57;3.58;;;;;;;23.38;79.97;99539.50;5133016;27;20225;-65
2023/05/29 10:31:52;;;;;;;6.43;3.78;;;;;;;23.40;83.54;99537.38;5135199;27;20113;-65
2023/05/29 10:34:42;;;;;;;4.93;3.50;;;;;;;23.36;84.86;99528.94;5134214;27;20039;-65
2023/05/29 10:37:15;;;;;;;5.00;3.45;;;;;;;23.25;83.20;99529.88;5135083;27;20034;-65
2023/05/29 10:39:41;;;;;;;5.28;3.65;;;;;;;23.15;81.30;99529.75;5133738;27;20035;-65
2023/05/29 10:42:45;;;;;;;6.30;4.18;;;;;;;23.30;81.50;99527.25;5132558;27;20128;-65
2023/05/29 10:45:31;;;;;;;5.72;3.90;;;;;;;23.33;82.48;99524.03;5132778;27;20035;-65
2023/05/29 10:48:12;;;;;;;4.65;3.65;;;;;;;23.35;84.23;99519.22;5131012;27;20035;-65
2023/05/29 10:50:45;;;;;;;7.32;4.00;;;;;;;23.47;85.22;99517.19;5134146;27;20124;-65
2023/05/29 10:53:16;;;;;;;5.97;4.18;;;;;;;23.59;86.18;99527.91;5133141;27;20233;-65
2023/05/29 10:55:42;;;;;;;4.88;3.70;;;;;;;23.62;83.01;99532.00;5134166;27;20332;-65
2023/05/29 10:58:25;;;;;;;11.68;7.28;;;;;;;23.56;81.01;99531.94;5133585;27;20038;-65
2023/05/29 11:00:54;;;;;;;6.57;3.88;;;;;;;23.57;81.21;99532.75;5130889;27;20035;-65
2023/05/29 11:03:24;;;;;;;4.60;3.55;;;;;;;23.67;80.55;99529.34;5133656;27;20023;-65
2023/05/29 11:06:10;;;;;;;5.13;3.70;;;;;;;23.71;77.09;99527.78;5131550;27;20046;-65
2023/05/29 11:08:45;;;;;;;4.63;3.75;;;;;;;23.80;79.47;99524.38;5132688;27;20522;-65
2023/05/29 11:11:12;;;;;;;5.45;3.85;;;;;;;23.82;79.39;99522.22;5132974;27;20038;-65
2023/05/29 11:13:40;;;;;;;3.75;2.90;;;;;;;23.87;75.06;99522.28;5133844;27;20039;-65
2023/05/29 11:16:14;;;;;;;3.13;2.85;;;;;;;23.93;75.45;99517.78;5132232;27;20046;-65
2023/05/29 11:18:45;;;;;;;3.97;3.20;;;;;;;24.00;75.28;99506.75;5132804;27;20038;-65
2023/05/29 11:21:43;;;;;;;4.82;3.08;;;;;;;24.14;79.09;99510.69;5132159;27;20072;-65
2023/05/29 11:24:21;;;;;;;4.18;3.20;;;;;;;24.15;77.72;99509.59;5134684;27;20055;-65
2023/05/29 11:26:47;;;;;;;5.85;3.38;;;;;;;24.04;76.82;99495.16;5134227;27;20305;-65
2023/05/29 11:29:13;;;;;;;4.40;3.13;;;;;;;24.07;78.05;99504.66;5131900;27;20218;-65